sensor_id;sensor_type;location;lat;lon;timestamp;pressure;altitude;pressure_sealevel;temperature;humidity
37892;BME280;45797;47.466;9.486;2023-05-03T00:00:26;96450.91;;;11.37;64.56
37892;BME280;45797;47.466;9.486;2023-05-03T00:05:28;96456.53;;;11.31;64.91
37892;BME280;45797;47.466;9.486;2023-05-03T00:10:28;96453.34;;;11.26;65.21
37892;BME280;45797;47.466;9.486;2023-05-03T00:15:31;96449.16;;;11.24;65.13
37892;BME280;45797;47.466;9.486;2023-05-03T00:20:32;96449.44;;;11.19;65.47
37892;BME280;45797;47.466;9.486;2023-05-03T00:25:38;96444.47;;;11.14;65.25
37892;BME280;45797;47.466;9.486;2023-05-03T00:30:39;96449.09;;;11.11;65.62
37892;BME280;45797;47.466;9.486;2023-05-03T00:35:47;96439.53;;;11.10;65.66
37892;BME280;45797;47.466;9.486;2023-05-03T00:40:53;96434.31;;;11.10;65.38
37892;BME280;45797;47.466;9.486;2023-05-03T00:46:02;96443.38;;;11.04;65.66
37892;BME280;45797;47.466;9.486;2023-05-03T00:51:13;96442.84;;;10.99;65.54
37892;BME280;45797;47.466;9.486;2023-05-03T00:56:18;96441.25;;;10.97;65.97
37892;BME280;45797;47.466;9.486;2023-05-03T01:01:24;96438.81;;;10.94;66.07
37892;BME280;45797;47.466;9.486;2023-05-03T01:06:54;96433.84;;;10.89;65.63
37892;BME280;45797;47.466;9.486;2023-05-03T01:12:32;96430.91;;;10.81;65.85
37892;BME280;45797;47.466;9.486;2023-05-03T01:17:38;96428.91;;;10.84;65.95
37892;BME280;45797;47.466;9.486;2023-05-03T01:28:11;96434.69;;;10.90;65.65
37892;BME280;45797;47.466;9.486;2023-05-03T01:33:17;96422.38;;;10.92;66.24
37892;BME280;45797;47.466;9.486;2023-05-03T01:38:32;96421.41;;;10.93;65.88
37892;BME280;45797;47.466;9.486;2023-05-03T01:43:38;96425.97;;;11.03;65.92
37892;BME280;45797;47.466;9.486;2023-05-03T01:48:40;96428.28;;;11.08;65.74
37892;BME280;45797;47.466;9.486;2023-05-03T01:53:45;96433.91;;;11.16;65.68
37892;BME280;45797;47.466;9.486;2023-05-03T01:58:53;96423.22;;;11.19;65.79
37892;BME280;45797;47.466;9.486;2023-05-03T02:03:58;96424.19;;;11.18;65.79
37892;BME280;45797;47.466;9.486;2023-05-03T02:08:58;96414.69;;;11.15;65.88
37892;BME280;45797;47.466;9.486;2023-05-03T02:13:58;96420.44;;;11.08;66.17
37892;BME280;45797;47.466;9.486;2023-05-03T02:19:00;96421.88;;;10.99;66.61
37892;BME280;45797;47.466;9.486;2023-05-03T02:24:07;96425.09;;;10.90;66.55
37892;BME280;45797;47.466;9.486;2023-05-03T02:29:23;96433.06;;;10.74;67.03
37892;BME280;45797;47.466;9.486;2023-05-03T02:34:37;96433.72;;;10.64;66.89
37892;BME280;45797;47.466;9.486;2023-05-03T02:39:45;96437.34;;;10.61;67.61
37892;BME280;45797;47.466;9.486;2023-05-03T02:44:48;96434.19;;;10.56;67.22
37892;BME280;45797;47.466;9.486;2023-05-03T02:49:49;96436.91;;;10.54;67.48
37892;BME280;45797;47.466;9.486;2023-05-03T02:54:53;96435.13;;;10.55;67.15
37892;BME280;45797;47.466;9.486;2023-05-03T03:00:00;96436.16;;;10.52;67.63
37892;BME280;45797;47.466;9.486;2023-05-03T03:05:00;96427.63;;;10.49;67.58
37892;BME280;45797;47.466;9.486;2023-05-03T03:10:02;96414.94;;;10.43;67.21
37892;BME280;45797;47.466;9.486;2023-05-03T03:15:04;96414.38;;;10.38;67.56
37892;BME280;45797;47.466;9.486;2023-05-03T03:20:17;96413.88;;;10.31;67.60
37892;BME280;45797;47.466;9.486;2023-05-03T03:25:35;96401.34;;;10.22;67.73
37892;BME280;45797;47.466;9.486;2023-05-03T03:30:39;96408.44;;;10.20;67.98
37892;BME280;45797;47.466;9.486;2023-05-03T03:35:51;96410.22;;;10.19;68.17
37892;BME280;45797;47.466;9.486;2023-05-03T03:40:56;96415.88;;;10.27;67.91
37892;BME280;45797;47.466;9.486;2023-05-03T03:45:59;96416.25;;;10.36;67.69
37892;BME280;45797;47.466;9.486;2023-05-03T03:51:05;96412.31;;;10.43;67.43
37892;BME280;45797;47.466;9.486;2023-05-03T03:56:20;96407.16;;;10.55;67.08
37892;BME280;45797;47.466;9.486;2023-05-03T04:01:23;96416.13;;;10.66;67.00
37892;BME280;45797;47.466;9.486;2023-05-03T04:06:25;96419.13;;;10.74;67.08
37892;BME280;45797;47.466;9.486;2023-05-03T04:11:28;96413.41;;;10.81;67.14
37892;BME280;45797;47.466;9.486;2023-05-03T04:16:42;96417.97;;;10.92;66.83
37892;BME280;45797;47.466;9.486;2023-05-03T04:21:42;96431.31;;;11.02;66.77
37892;BME280;45797;47.466;9.486;2023-05-03T04:26:48;96423.81;;;11.10;66.51
37892;BME280;45797;47.466;9.486;2023-05-03T04:32:05;96423.41;;;11.16;66.59
37892;BME280;45797;47.466;9.486;2023-05-03T04:37:17;96431.09;;;11.19;66.76
37892;BME280;45797;47.466;9.486;2023-05-03T04:42:23;96437.22;;;11.32;66.83
37892;BME280;45797;47.466;9.486;2023-05-03T04:47:25;96438.50;;;11.39;67.26
37892;BME280;45797;47.466;9.486;2023-05-03T04:52:33;96451.78;;;11.51;66.45
37892;BME280;45797;47.466;9.486;2023-05-03T04:57:34;96442.75;;;11.55;66.75
37892;BME280;45797;47.466;9.486;2023-05-03T05:02:34;96454.53;;;11.62;66.65
37892;BME280;45797;47.466;9.486;2023-05-03T05:07:40;96451.09;;;11.74;66.63
37892;BME280;45797;47.466;9.486;2023-05-03T05:12:44;96446.09;;;11.84;66.64
37892;BME280;45797;47.466;9.486;2023-05-03T05:17:53;96451.50;;;11.95;65.83
37892;BME280;45797;47.466;9.486;2023-05-03T05:22:54;96457.38;;;11.98;66.72
37892;BME280;45797;47.466;9.486;2023-05-03T05:28:04;96466.00;;;12.00;66.55
37892;BME280;45797;47.466;9.486;2023-05-03T05:33:06;96468.31;;;12.05;66.69
37892;BME280;45797;47.466;9.486;2023-05-03T05:38:19;96480.91;;;12.13;66.50
37892;BME280;45797;47.466;9.486;2023-05-03T05:43:21;96478.94;;;12.16;66.83
37892;BME280;45797;47.466;9.486;2023-05-03T05:48:26;96474.63;;;12.28;66.23
37892;BME280;45797;47.466;9.486;2023-05-03T05:53:29;96478.03;;;12.43;65.84
37892;BME280;45797;47.466;9.486;2023-05-03T05:58:39;96478.84;;;12.56;65.98
37892;BME280;45797;47.466;9.486;2023-05-03T06:03:40;96484.09;;;12.56;66.35
37892;BME280;45797;47.466;9.486;2023-05-03T06:09:02;96480.31;;;12.60;65.77
37892;BME280;45797;47.466;9.486;2023-05-03T06:14:11;96481.47;;;12.69;65.98
37892;BME280;45797;47.466;9.486;2023-05-03T06:19:14;96483.25;;;12.68;66.28
37892;BME280;45797;47.466;9.486;2023-05-03T06:24:19;96480.63;;;12.81;65.93
37892;BME280;45797;47.466;9.486;2023-05-03T06:29:25;96490.63;;;12.76;66.29
37892;BME280;45797;47.466;9.486;2023-05-03T06:34:36;96487.69;;;12.80;66.05
37892;BME280;45797;47.466;9.486;2023-05-03T06:39:36;96487.03;;;12.90;66.36
37892;BME280;45797;47.466;9.486;2023-05-03T06:44:39;96488.84;;;12.89;65.58
37892;BME280;45797;47.466;9.486;2023-05-03T06:49:41;96500.28;;;12.88;66.15
37892;BME280;45797;47.466;9.486;2023-05-03T06:54:45;96499.22;;;12.78;66.29
37892;BME280;45797;47.466;9.486;2023-05-03T06:59:52;96490.81;;;12.98;65.44
37892;BME280;45797;47.466;9.486;2023-05-03T07:04:52;96478.56;;;13.23;65.46
37892;BME280;45797;47.466;9.486;2023-05-03T07:09:54;96481.97;;;13.49;65.22
37892;BME280;45797;47.466;9.486;2023-05-03T07:15:04;96478.84;;;13.67;64.47
37892;BME280;45797;47.466;9.486;2023-05-03T07:20:06;96472.53;;;13.81;64.65
37892;BME280;45797;47.466;9.486;2023-05-03T07:25:06;96466.28;;;14.06;64.22
37892;BME280;45797;47.466;9.486;2023-05-03T07:30:07;96462.72;;;14.07;64.30
37892;BME280;45797;47.466;9.486;2023-05-03T07:35:09;96458.81;;;14.24;64.07
37892;BME280;45797;47.466;9.486;2023-05-03T07:40:09;96453.44;;;14.37;63.62
37892;BME280;45797;47.466;9.486;2023-05-03T07:45:12;96446.31;;;14.50;63.67
37892;BME280;45797;47.466;9.486;2023-05-03T07:50:14;96437.91;;;14.56;63.45
37892;BME280;45797;47.466;9.486;2023-05-03T07:55:24;96439.66;;;14.44;63.80
37892;BME280;45797;47.466;9.486;2023-05-03T08:00:25;96438.56;;;14.36;64.54
37892;BME280;45797;47.466;9.486;2023-05-03T08:05:29;96436.66;;;14.38;63.81
37892;BME280;45797;47.466;9.486;2023-05-03T08:10:29;96444.53;;;14.15;64.58
37892;BME280;45797;47.466;9.486;2023-05-03T08:15:32;96443.13;;;14.34;64.20
37892;BME280;45797;47.466;9.486;2023-05-03T08:20:34;96431.66;;;14.57;63.40
37892;BME280;45797;47.466;9.486;2023-05-03T08:25:37;96427.00;;;14.72;63.53
37892;BME280;45797;47.466;9.486;2023-05-03T08:30:42;96429.50;;;15.07;62.54
37892;BME280;45797;47.466;9.486;2023-05-03T08:35:44;96417.28;;;14.95;62.80
37892;BME280;45797;47.466;9.486;2023-05-03T08:40:48;96418.38;;;14.70;63.46
37892;BME280;45797;47.466;9.486;2023-05-03T08:45:56;96405.69;;;14.64;63.94
37892;BME280;45797;47.466;9.486;2023-05-03T08:50:59;96397.38;;;14.91;63.17
37892;BME280;45797;47.466;9.486;2023-05-03T08:56:08;96402.75;;;15.11;62.71
37892;BME280;45797;47.466;9.486;2023-05-03T09:01:09;96393.00;;;15.23;62.56
37892;BME280;45797;47.466;9.486;2023-05-03T09:06:25;96393.16;;;15.42;62.10
37892;BME280;45797;47.466;9.486;2023-05-03T09:11:29;96390.63;;;15.63;61.90
37892;BME280;45797;47.466;9.486;2023-05-03T09:16:30;96386.00;;;15.77;61.53
37892;BME280;45797;47.466;9.486;2023-05-03T09:21:33;96394.00;;;15.86;61.22
37892;BME280;45797;47.466;9.486;2023-05-03T09:26:34;96394.34;;;15.82;61.62
37892;BME280;45797;47.466;9.486;2023-05-03T09:32:00;96389.34;;;15.99;61.26
37892;BME280;45797;47.466;9.486;2023-05-03T09:37:09;96392.09;;;16.19;60.91
37892;BME280;45797;47.466;9.486;2023-05-03T09:42:16;96386.91;;;16.38;60.22
37892;BME280;45797;47.466;9.486;2023-05-03T09:47:19;96384.53;;;16.66;59.92
37892;BME280;45797;47.466;9.486;2023-05-03T09:52:20;96384.97;;;16.92;59.60
37892;BME280;45797;47.466;9.486;2023-05-03T09:57:23;96383.91;;;17.23;58.71
37892;BME280;45797;47.466;9.486;2023-05-03T10:02:25;96380.59;;;17.50;58.09
37892;BME280;45797;47.466;9.486;2023-05-03T10:07:27;96378.94;;;17.68;57.74
37892;BME280;45797;47.466;9.486;2023-05-03T10:12:29;96372.44;;;17.73;57.61
37892;BME280;45797;47.466;9.486;2023-05-03T10:17:32;96377.81;;;17.90;57.72
37892;BME280;45797;47.466;9.486;2023-05-03T10:23:12;96376.56;;;18.04;56.86
37892;BME280;45797;47.466;9.486;2023-05-03T10:28:13;96371.56;;;18.01;57.26
37892;BME280;45797;47.466;9.486;2023-05-03T10:38:21;96364.06;;;18.34;56.72
37892;BME280;45797;47.466;9.486;2023-05-03T10:48:38;96362.63;;;18.96;55.34
37892;BME280;45797;47.466;9.486;2023-05-03T10:53:41;96359.22;;;19.21;54.75
37892;BME280;45797;47.466;9.486;2023-05-03T10:58:45;96362.81;;;19.48;54.41
37892;BME280;45797;47.466;9.486;2023-05-03T11:04:29;96356.44;;;19.40;54.79
37892;BME280;45797;47.466;9.486;2023-05-03T11:09:32;96350.59;;;19.55;54.64
37892;BME280;45797;47.466;9.486;2023-05-03T11:14:36;96340.19;;;19.79;54.58
37892;BME280;45797;47.466;9.486;2023-05-03T11:19:45;96329.34;;;20.16;53.99
37892;BME280;45797;47.466;9.486;2023-05-03T11:24:50;96341.34;;;20.46;53.18
37892;BME280;45797;47.466;9.486;2023-05-03T11:29:50;96333.81;;;20.42;53.22
37892;BME280;45797;47.466;9.486;2023-05-03T11:34:54;96336.44;;;20.34;53.86
37892;BME280;45797;47.466;9.486;2023-05-03T11:40:01;96335.38;;;20.26;53.63
37892;BME280;45797;47.466;9.486;2023-05-03T11:45:02;96330.28;;;20.59;53.41
37892;BME280;45797;47.466;9.486;2023-05-03T11:50:07;96321.09;;;20.88;52.90
37892;BME280;45797;47.466;9.486;2023-05-03T11:55:08;96321.00;;;21.22;52.55
37892;BME280;45797;47.466;9.486;2023-05-03T12:05:13;96313.25;;;21.69;51.50
37892;BME280;45797;47.466;9.486;2023-05-03T12:10:16;96313.94;;;21.95;50.78
37892;BME280;45797;47.466;9.486;2023-05-03T12:15:39;96307.75;;;22.03;50.89
37892;BME280;45797;47.466;9.486;2023-05-03T12:21:04;96305.91;;;22.28;50.65
37892;BME280;45797;47.466;9.486;2023-05-03T12:26:16;96304.03;;;22.45;49.85
37892;BME280;45797;47.466;9.486;2023-05-03T12:31:19;96297.84;;;22.44;49.73
37892;BME280;45797;47.466;9.486;2023-05-03T12:36:45;96292.25;;;22.70;49.63
37892;BME280;45797;47.466;9.486;2023-05-03T12:41:46;96296.44;;;23.12;48.69
37892;BME280;45797;47.466;9.486;2023-05-03T12:46:46;96298.28;;;23.34;47.94
37892;BME280;45797;47.466;9.486;2023-05-03T12:52:01;96281.06;;;23.37;48.45
37892;BME280;45797;47.466;9.486;2023-05-03T12:57:01;96274.41;;;23.33;48.20
37892;BME280;45797;47.466;9.486;2023-05-03T13:02:12;96277.25;;;23.54;47.97
37892;BME280;45797;47.466;9.486;2023-05-03T13:07:13;96272.31;;;23.89;47.45
37892;BME280;45797;47.466;9.486;2023-05-03T13:12:18;96267.91;;;24.26;46.99
37892;BME280;45797;47.466;9.486;2023-05-03T13:17:20;96262.06;;;24.45;46.46
37892;BME280;45797;47.466;9.486;2023-05-03T13:22:24;96252.16;;;24.60;46.54
37892;BME280;45797;47.466;9.486;2023-05-03T13:27:33;96249.66;;;24.73;46.51
37892;BME280;45797;47.466;9.486;2023-05-03T13:32:38;96238.56;;;24.76;46.30
37892;BME280;45797;47.466;9.486;2023-05-03T13:37:57;96227.16;;;24.89;46.24
37892;BME280;45797;47.466;9.486;2023-05-03T13:42:59;96231.94;;;25.09;45.67
37892;BME280;45797;47.466;9.486;2023-05-03T13:47:59;96226.97;;;25.27;45.29
37892;BME280;45797;47.466;9.486;2023-05-03T13:53:01;96222.50;;;25.34;45.81
37892;BME280;45797;47.466;9.486;2023-05-03T13:58:22;96206.13;;;25.29;45.13
37892;BME280;45797;47.466;9.486;2023-05-03T14:03:22;96217.44;;;25.46;45.11
37892;BME280;45797;47.466;9.486;2023-05-03T14:08:25;96219.56;;;25.50;45.07
37892;BME280;45797;47.466;9.486;2023-05-03T14:13:26;96219.28;;;25.67;44.09
37892;BME280;45797;47.466;9.486;2023-05-03T14:18:27;96206.22;;;25.85;44.31
37892;BME280;45797;47.466;9.486;2023-05-03T14:23:29;96210.13;;;26.10;43.70
37892;BME280;45797;47.466;9.486;2023-05-03T14:28:46;96204.25;;;26.28;43.28
37892;BME280;45797;47.466;9.486;2023-05-03T14:33:46;96199.78;;;26.42;43.29
37892;BME280;45797;47.466;9.486;2023-05-03T14:38:50;96202.91;;;26.39;42.87
37892;BME280;45797;47.466;9.486;2023-05-03T14:43:55;96199.66;;;26.15;43.63
37892;BME280;45797;47.466;9.486;2023-05-03T14:49:06;96196.84;;;26.02;43.90
37892;BME280;45797;47.466;9.486;2023-05-03T14:54:10;96197.72;;;26.09;43.41
37892;BME280;45797;47.466;9.486;2023-05-03T14:59:18;96201.91;;;26.53;42.13
37892;BME280;45797;47.466;9.486;2023-05-03T15:04:21;96197.66;;;26.65;42.38
37892;BME280;45797;47.466;9.486;2023-05-03T15:09:22;96200.19;;;26.39;42.68
37892;BME280;45797;47.466;9.486;2023-05-03T15:14:22;96204.34;;;26.13;43.22
37892;BME280;45797;47.466;9.486;2023-05-03T15:19:25;96202.81;;;25.70;43.69
37892;BME280;45797;47.466;9.486;2023-05-03T15:24:28;96201.03;;;25.55;43.90
37892;BME280;45797;47.466;9.486;2023-05-03T15:29:30;96204.59;;;25.62;43.09
37892;BME280;45797;47.466;9.486;2023-05-03T15:34:31;96202.69;;;25.56;44.09
37892;BME280;45797;47.466;9.486;2023-05-03T15:39:32;96202.03;;;25.54;43.50
37892;BME280;45797;47.466;9.486;2023-05-03T15:50:24;96201.38;;;24.88;44.80
37892;BME280;45797;47.466;9.486;2023-05-03T15:55:26;96204.25;;;24.72;44.70
37892;BME280;45797;47.466;9.486;2023-05-03T16:00:42;96205.69;;;24.23;45.48
37892;BME280;45797;47.466;9.486;2023-05-03T16:05:44;96204.78;;;24.16;45.67
37892;BME280;45797;47.466;9.486;2023-05-03T16:10:46;96186.28;;;25.23;43.55
37892;BME280;45797;47.466;9.486;2023-05-03T16:15:47;96186.50;;;27.76;39.89
37892;BME280;45797;47.466;9.486;2023-05-03T16:20:56;96181.72;;;27.84;39.56
37892;BME280;45797;47.466;9.486;2023-05-03T16:25:59;96182.94;;;27.42;40.72
37892;BME280;45797;47.466;9.486;2023-05-03T16:31:00;96182.97;;;27.75;40.26
37892;BME280;45797;47.466;9.486;2023-05-03T16:36:00;96179.78;;;31.31;34.94
37892;BME280;45797;47.466;9.486;2023-05-03T16:41:01;96185.69;;;32.39;33.82
37892;BME280;45797;47.466;9.486;2023-05-03T16:46:02;96183.41;;;30.21;37.21
37892;BME280;45797;47.466;9.486;2023-05-03T16:51:03;96189.44;;;28.59;39.77
37892;BME280;45797;47.466;9.486;2023-05-03T16:56:04;96185.41;;;27.37;41.57
37892;BME280;45797;47.466;9.486;2023-05-03T17:01:16;96187.97;;;29.77;37.25
37892;BME280;45797;47.466;9.486;2023-05-03T17:06:17;96190.41;;;31.14;35.24
37892;BME280;45797;47.466;9.486;2023-05-03T17:11:25;96182.63;;;31.36;35.04
37892;BME280;45797;47.466;9.486;2023-05-03T17:16:28;96181.31;;;31.92;33.97
37892;BME280;45797;47.466;9.486;2023-05-03T17:21:29;96189.59;;;31.13;35.25
37892;BME280;45797;47.466;9.486;2023-05-03T17:26:33;96183.06;;;29.68;37.61
37892;BME280;45797;47.466;9.486;2023-05-03T17:31:35;96186.72;;;30.60;36.03
37892;BME280;45797;47.466;9.486;2023-05-03T17:36:38;96178.38;;;31.81;34.08
37892;BME280;45797;47.466;9.486;2023-05-03T17:41:40;96185.38;;;33.16;32.36
37892;BME280;45797;47.466;9.486;2023-05-03T17:46:58;96190.63;;;34.14;31.61
37892;BME280;45797;47.466;9.486;2023-05-03T17:52:20;96189.59;;;34.53;31.19
37892;BME280;45797;47.466;9.486;2023-05-03T17:57:27;96198.03;;;34.01;31.95
37892;BME280;45797;47.466;9.486;2023-05-03T18:02:29;96204.38;;;33.00;32.95
37892;BME280;45797;47.466;9.486;2023-05-03T18:07:30;96199.03;;;32.18;33.64
37892;BME280;45797;47.466;9.486;2023-05-03T18:12:30;96203.53;;;31.47;34.78
37892;BME280;45797;47.466;9.486;2023-05-03T18:17:30;96199.25;;;29.68;36.58
37892;BME280;45797;47.466;9.486;2023-05-03T18:22:39;96197.84;;;27.45;39.78
37892;BME280;45797;47.466;9.486;2023-05-03T18:27:41;96204.63;;;25.90;41.80
37892;BME280;45797;47.466;9.486;2023-05-03T18:32:41;96212.06;;;24.67;43.55
37892;BME280;45797;47.466;9.486;2023-05-03T18:37:41;96213.69;;;23.56;44.67
37892;BME280;45797;47.466;9.486;2023-05-03T18:42:43;96229.19;;;22.61;46.15
37892;BME280;45797;47.466;9.486;2023-05-03T18:47:43;96216.59;;;21.75;47.23
37892;BME280;45797;47.466;9.486;2023-05-03T18:52:43;96222.88;;;21.01;48.03
37892;BME280;45797;47.466;9.486;2023-05-03T18:57:52;96225.50;;;20.34;48.87
37892;BME280;45797;47.466;9.486;2023-05-03T19:02:53;96221.34;;;19.72;49.58
37892;BME280;45797;47.466;9.486;2023-05-03T19:07:53;96228.16;;;19.12;50.52
37892;BME280;45797;47.466;9.486;2023-05-03T19:13:05;96233.25;;;18.61;51.27
37892;BME280;45797;47.466;9.486;2023-05-03T19:18:08;96230.81;;;18.22;51.65
37892;BME280;45797;47.466;9.486;2023-05-03T19:23:25;96234.72;;;17.81;52.29
37892;BME280;45797;47.466;9.486;2023-05-03T19:28:27;96237.28;;;17.53;52.27
37892;BME280;45797;47.466;9.486;2023-05-03T19:33:27;96232.00;;;17.24;52.81
37892;BME280;45797;47.466;9.486;2023-05-03T19:38:29;96230.19;;;16.96;53.16
37892;BME280;45797;47.466;9.486;2023-05-03T19:43:42;96233.63;;;16.67;53.63
37892;BME280;45797;47.466;9.486;2023-05-03T19:48:44;96240.16;;;16.53;53.94
37892;BME280;45797;47.466;9.486;2023-05-03T19:54:03;96240.91;;;16.25;54.22
37892;BME280;45797;47.466;9.486;2023-05-03T19:59:07;96242.22;;;16.10;54.51
37892;BME280;45797;47.466;9.486;2023-05-03T20:04:08;96239.25;;;15.93;54.82
37892;BME280;45797;47.466;9.486;2023-05-03T20:09:09;96248.63;;;15.77;55.37
37892;BME280;45797;47.466;9.486;2023-05-03T20:14:09;96246.69;;;15.58;55.49
37892;BME280;45797;47.466;9.486;2023-05-03T20:19:10;96251.72;;;15.40;55.85
37892;BME280;45797;47.466;9.486;2023-05-03T20:24:11;96239.41;;;15.29;55.98
37892;BME280;45797;47.466;9.486;2023-05-03T20:29:13;96232.13;;;15.22;55.97
37892;BME280;45797;47.466;9.486;2023-05-03T20:34:15;96237.06;;;15.15;56.16
37892;BME280;45797;47.466;9.486;2023-05-03T20:39:17;96233.78;;;15.02;56.40
37892;BME280;45797;47.466;9.486;2023-05-03T20:44:18;96223.53;;;14.88;56.98
37892;BME280;45797;47.466;9.486;2023-05-03T20:49:18;96224.53;;;14.75;56.92
37892;BME280;45797;47.466;9.486;2023-05-03T20:54:20;96220.28;;;14.63;57.03
37892;BME280;45797;47.466;9.486;2023-05-03T20:59:22;96225.72;;;14.50;57.36
37892;BME280;45797;47.466;9.486;2023-05-03T21:04:24;96220.53;;;14.38;57.34
37892;BME280;45797;47.466;9.486;2023-05-03T21:09:28;96216.00;;;14.28;57.89
37892;BME280;45797;47.466;9.486;2023-05-03T21:14:29;96221.28;;;14.17;58.41
37892;BME280;45797;47.466;9.486;2023-05-03T21:19:35;96213.53;;;14.05;58.21
37892;BME280;45797;47.466;9.486;2023-05-03T21:24:36;96213.28;;;13.96;58.29
37892;BME280;45797;47.466;9.486;2023-05-03T21:29:42;96212.47;;;13.85;59.07
37892;BME280;45797;47.466;9.486;2023-05-03T21:34:52;96220.34;;;13.73;58.72
37892;BME280;45797;47.466;9.486;2023-05-03T21:39:54;96216.41;;;13.68;58.84
37892;BME280;45797;47.466;9.486;2023-05-03T21:44:56;96211.50;;;13.63;59.31
37892;BME280;45797;47.466;9.486;2023-05-03T21:49:59;96214.13;;;13.63;59.19
37892;BME280;45797;47.466;9.486;2023-05-03T21:55:06;96210.06;;;13.59;59.36
37892;BME280;45797;47.466;9.486;2023-05-03T22:00:11;96198.81;;;13.57;59.18
37892;BME280;45797;47.466;9.486;2023-05-03T22:05:17;96199.78;;;13.56;59.51
37892;BME280;45797;47.466;9.486;2023-05-03T22:10:19;96199.03;;;13.54;59.54
37892;BME280;45797;47.466;9.486;2023-05-03T22:15:26;96192.72;;;13.46;59.99
37892;BME280;45797;47.466;9.486;2023-05-03T22:20:26;96187.53;;;13.44;59.95
37892;BME280;45797;47.466;9.486;2023-05-03T22:25:29;96186.84;;;13.42;60.15
37892;BME280;45797;47.466;9.486;2023-05-03T22:30:45;96182.03;;;13.36;59.94
37892;BME280;45797;47.466;9.486;2023-05-03T22:35:49;96176.69;;;13.37;60.12
37892;BME280;45797;47.466;9.486;2023-05-03T22:41:00;96184.91;;;13.33;60.28
37892;BME280;45797;47.466;9.486;2023-05-03T22:46:03;96185.16;;;13.30;60.35
37892;BME280;45797;47.466;9.486;2023-05-03T22:51:04;96175.09;;;13.24;60.68
37892;BME280;45797;47.466;9.486;2023-05-03T22:56:14;96181.00;;;13.14;60.89
37892;BME280;45797;47.466;9.486;2023-05-03T23:01:29;96172.78;;;13.08;60.89
37892;BME280;45797;47.466;9.486;2023-05-03T23:06:36;96170.84;;;13.10;60.76
37892;BME280;45797;47.466;9.486;2023-05-03T23:11:43;96174.66;;;13.06;60.99
37892;BME280;45797;47.466;9.486;2023-05-03T23:16:56;96174.31;;;12.99;61.09
37892;BME280;45797;47.466;9.486;2023-05-03T23:21:57;96158.63;;;12.98;61.03
37892;BME280;45797;47.466;9.486;2023-05-03T23:26:57;96156.09;;;12.96;61.32
37892;BME280;45797;47.466;9.486;2023-05-03T23:32:06;96156.22;;;12.95;61.13
37892;BME280;45797;47.466;9.486;2023-05-03T23:37:08;96159.94;;;12.92;61.26
37892;BME280;45797;47.466;9.486;2023-05-03T23:42:16;96155.84;;;12.88;62.31
37892;BME280;45797;47.466;9.486;2023-05-03T23:47:24;96152.63;;;12.84;61.80
37892;BME280;45797;47.466;9.486;2023-05-03T23:52:35;96148.66;;;12.79;62.03
37892;BME280;45797;47.466;9.486;2023-05-03T23:57:39;96154.78;;;12.79;62.02
